Terminal Aerodrome Forecast
Issued by NWS

Home | Current Version | Previous Version | Graphics & Text | Print | Product List | Glossary On
Versions: 1 2 3 4 5 6 7 8 9 10 11 12 13 14 15 16 17 18 19 20 21 22
000
FTUS43 KICT 291525 AAC
TAFHUT
TAF AMD
KHUT 291525Z 2915/3012 01009KT P6SM VCTS SCT025 BKN050CB
      TEMPO 2915/2917 VRB13G22KT 4SM SHRA BKN020 OVC040
     FM291700 05014KT P6SM VCTS BKN040CB
     FM292000 07013KT P6SM VCSH BKN080=

USA.gov is the U.S. government's official web portal to all federal, state and local government web resources and services.